createdAt,value
2019-04-25T00:00:53.768Z,100153.23
2019-04-25T00:06:09.859Z,100156.21
2019-04-25T00:08:37.372Z,100168.85
2019-04-25T00:11:46.579Z,100165.36
2019-04-25T00:14:28.212Z,100168.14
2019-04-25T00:16:55.385Z,100153.97
2019-04-25T00:19:22.232Z,100156.53
2019-04-25T00:22:09.106Z,100141.67
2019-04-25T00:24:56.532Z,100156.90
2019-04-25T00:30:13.144Z,100177.71
2019-04-25T00:32:42.150Z,100169.59
2019-04-25T00:35:09.722Z,100156.02
2019-04-25T00:37:36.853Z,100165.47
2019-04-25T00:40:04.618Z,100178.39
2019-04-25T00:42:32.172Z,100169.19
2019-04-25T00:44:59.664Z,100163.68
2019-04-25T00:47:26.746Z,100167.65
2019-04-25T00:49:53.968Z,100166.40
2019-04-25T00:52:22.637Z,100165.00
2019-04-25T00:54:52.325Z,100159.38
2019-04-25T00:57:19.902Z,100162.50
2019-04-25T01:05:57.952Z,100175.60
2019-04-25T01:08:24.853Z,100181.76
2019-04-25T01:10:52.272Z,100180.83
2019-04-25T01:13:22.286Z,100184.48
2019-04-25T01:15:51.084Z,100197.51
2019-04-25T01:18:19.392Z,100199.91
2019-04-25T01:20:46.973Z,100196.72
2019-04-25T01:23:15.615Z,100206.45
2019-04-25T01:25:44.731Z,100199.97
2019-04-25T01:28:13.160Z,100200.36
2019-04-25T01:30:40.521Z,100197.32
2019-04-25T01:33:07.969Z,100203.08
2019-04-25T01:38:58.831Z,100193.73
2019-04-25T01:41:47.567Z,100188.97
2019-04-25T01:44:34.795Z,100199.75
2019-04-25T01:47:01.628Z,100190.87
2019-04-25T01:49:28.421Z,100186.17
2019-04-25T01:51:57.385Z,100189.43
2019-04-25T01:54:23.944Z,100174.70
2019-04-25T01:56:50.963Z,100165.45
2019-04-25T01:59:17.651Z,100164.20
2019-04-25T02:01:44.502Z,100167.50
2019-04-25T02:04:13.146Z,100190.86
2019-04-25T02:07:00.153Z,100205.21
2019-04-25T02:09:27.423Z,100225.47
2019-04-25T02:12:15.512Z,100254.69
2019-04-25T02:14:43.563Z,100256.16
2019-04-25T02:17:11.154Z,100262.09
2019-04-25T02:19:38.707Z,100267.55
2019-04-25T02:22:06.334Z,100282.99
2019-04-25T02:24:33.953Z,100283.60
2019-04-25T02:27:04.569Z,100289.75
2019-04-25T02:29:33.258Z,100303.00
2019-04-25T02:34:36.198Z,100315.48
2019-04-25T02:37:08.347Z,100312.61
2019-04-25T02:39:36.857Z,100308.72
2019-04-25T02:42:04.036Z,100306.84
2019-04-25T02:47:39.603Z,100305.37
2019-04-25T02:50:26.408Z,100305.58
2019-04-25T02:53:14.177Z,100305.09
2019-04-25T02:55:41.347Z,100309.79
2019-04-25T02:58:10.213Z,100306.44
2019-04-25T03:00:51.724Z,100309.33
2019-04-25T03:03:08.890Z,100312.53
2019-04-25T03:05:36.302Z,100314.25
2019-04-25T03:08:09.915Z,100321.41
2019-04-25T03:10:36.060Z,100315.97
2019-04-25T03:13:07.086Z,100322.02
2019-04-25T03:15:34.238Z,100329.84
2019-04-25T03:18:05.673Z,100321.28
2019-04-25T03:23:55.065Z,100330.38
2019-04-25T03:26:23.316Z,100330.95
2019-04-25T03:28:50.928Z,100331.42
2019-04-25T03:31:22.522Z,100336.32
2019-04-25T03:33:46.666Z,100336.32
2019-04-25T03:36:13.984Z,100333.95
2019-04-25T03:38:44.072Z,100347.64
2019-04-25T03:41:11.278Z,100348.74
2019-04-25T03:43:38.316Z,100357.39
2019-04-25T03:46:06.183Z,100364.02
2019-04-25T03:48:36.843Z,100369.98
2019-04-25T03:51:04.576Z,100381.73
2019-04-25T03:53:31.263Z,100380.23
2019-04-25T03:55:58.140Z,100388.42
2019-04-25T03:58:24.994Z,100396.19
2019-04-25T04:00:52.008Z,100395.28
2019-04-25T04:03:18.766Z,100404.34
2019-04-25T04:05:45.543Z,100411.20
2019-04-25T04:08:12.465Z,100424.83
2019-04-25T04:10:39.204Z,100433.22
2019-04-25T04:13:07.150Z,100441.44
2019-04-25T04:15:34.717Z,100443.32
2019-04-25T04:20:59.804Z,100452.50
2019-04-25T04:23:46.338Z,100458.28
2019-04-25T04:29:03.035Z,100458.62
2019-04-25T04:31:30.293Z,100462.08
2019-04-25T04:33:57.045Z,100459.73
2019-04-25T04:36:23.862Z,100468.84
2019-04-25T04:38:51.053Z,100476.04
2019-04-25T04:41:17.902Z,100484.97
2019-04-25T04:43:44.676Z,100486.89
2019-04-25T04:46:12.093Z,100492.55
2019-04-25T04:48:40.181Z,100494.44
2019-04-25T04:51:06.920Z,100495.40
2019-04-25T04:53:35.729Z,100496.90
2019-04-25T04:56:02.310Z,100500.22
2019-04-25T04:58:29.068Z,100502.20
2019-04-25T05:00:55.830Z,100502.73
2019-04-25T05:03:44.193Z,100504.67
2019-04-25T05:06:31.213Z,100517.75
2019-04-25T05:09:23.813Z,100524.42
2019-04-25T05:11:51.828Z,100527.58
2019-04-25T05:14:19.559Z,100530.88
2019-04-25T05:16:49.449Z,100533.84
2019-04-25T05:19:16.815Z,100536.17
2019-04-25T05:22:04.694Z,100542.09
2019-04-25T05:24:31.638Z,100553.25
2019-04-25T05:26:58.928Z,100553.30
2019-04-25T05:29:39.179Z,100565.61
2019-04-25T05:32:06.795Z,100566.47
2019-04-25T05:34:34.465Z,100570.38
2019-04-25T05:37:03.798Z,100577.00
2019-04-25T05:39:33.459Z,100576.43
2019-04-25T05:44:50.594Z,100587.06
2019-04-25T05:47:20.068Z,100587.52
2019-04-25T05:49:47.966Z,100588.55
2019-04-25T05:52:15.989Z,100593.52
2019-04-25T05:54:44.382Z,100598.89
2019-04-25T05:57:13.878Z,100590.37
2019-04-25T05:59:40.708Z,100594.30
2019-04-25T06:02:07.443Z,100606.74
2019-04-25T06:04:34.301Z,100617.86
2019-04-25T06:07:01.046Z,100618.91
2019-04-25T06:09:47.546Z,100627.42
2019-04-25T06:12:34.254Z,100626.02
2019-04-25T06:15:02.907Z,100624.15
2019-04-25T06:25:47.975Z,100635.86
2019-04-25T06:31:10.299Z,100651.98
2019-04-25T06:33:35.848Z,100654.00
2019-04-25T06:36:04.182Z,100653.21
2019-04-25T06:38:33.469Z,100647.14
2019-04-25T06:41:01.213Z,100653.06
2019-04-25T06:43:28.537Z,100660.10
2019-04-25T06:46:15.493Z,100665.09
2019-04-25T06:48:49.602Z,100666.50
2019-04-25T06:51:17.199Z,100669.39
2019-04-25T06:53:44.650Z,100664.48
2019-04-25T06:56:13.571Z,100660.94
2019-04-25T06:58:40.909Z,100660.37
2019-04-25T07:01:08.087Z,100662.57
2019-04-25T07:03:35.813Z,100667.72
2019-04-25T07:06:29.168Z,100678.51
2019-04-25T07:09:20.590Z,100666.25
2019-04-25T07:11:53.759Z,100681.21
2019-04-25T07:14:20.868Z,100689.53
2019-04-25T07:16:47.673Z,100696.44
2019-04-25T07:19:17.360Z,100699.44
2019-04-25T07:21:44.375Z,100695.92
2019-04-25T07:24:14.143Z,100707.16
2019-04-25T07:27:01.422Z,100708.59
2019-04-25T07:29:47.874Z,100702.05
2019-04-25T07:32:35.686Z,100708.72
2019-04-25T07:35:03.712Z,100714.34
2019-04-25T07:37:30.895Z,100720.40
2019-04-25T07:39:58.020Z,100723.81
2019-04-25T07:42:25.980Z,100717.23
2019-04-25T07:44:55.178Z,100711.92
2019-04-25T07:47:24.208Z,100713.52
2019-04-25T07:49:52.318Z,100704.91
2019-04-25T07:52:19.415Z,100716.70
2019-04-25T07:54:46.518Z,100716.81
2019-04-25T07:57:14.044Z,100713.12
2019-04-25T07:59:43.530Z,100723.63
2019-04-25T08:02:10.666Z,100726.09
2019-04-25T08:04:38.369Z,100721.55
2019-04-25T08:07:05.861Z,100719.26
2019-04-25T08:09:34.528Z,100713.16
2019-04-25T08:12:03.366Z,100720.76
2019-04-25T08:19:44.568Z,100724.03
2019-04-25T08:22:58.371Z,100720.88
2019-04-25T08:25:21.205Z,100728.43
2019-04-25T08:27:48.028Z,100738.63
2019-04-25T08:30:14.899Z,100729.41
2019-04-25T08:33:04.827Z,100732.36
2019-04-25T08:36:04.548Z,100742.77
2019-04-25T08:38:20.925Z,100747.03
2019-04-25T08:40:47.950Z,100742.78
2019-04-25T08:43:14.734Z,100748.33
2019-04-25T08:45:41.934Z,100749.06
2019-04-25T08:48:09.214Z,100752.00
2019-04-25T08:50:55.683Z,100751.89
2019-04-25T08:59:10.376Z,100762.36
2019-04-25T09:01:56.715Z,100762.59
2019-04-25T09:04:44.606Z,100770.39
2019-04-25T09:07:13.466Z,100772.39
2019-04-25T09:09:41.140Z,100768.56
2019-04-25T09:12:09.354Z,100763.30
2019-04-25T09:14:36.806Z,100767.19
2019-04-25T09:17:05.295Z,100767.95
2019-04-25T09:19:33.587Z,100763.34
2019-04-25T09:22:03.200Z,100762.17
2019-04-25T09:24:30.091Z,100753.31
2019-04-25T09:26:56.940Z,100748.08
2019-04-25T09:29:23.713Z,100750.40
2019-04-25T09:31:50.442Z,100759.53
2019-04-25T09:34:17.424Z,100753.62
2019-04-25T09:36:45.029Z,100749.72
2019-04-25T09:39:33.798Z,100751.98
2019-04-25T09:42:01.176Z,100747.16
2019-04-25T09:52:21.814Z,100751.30
2019-04-25T09:55:08.309Z,100752.57
2019-04-25T09:57:55.027Z,100743.48
2019-04-25T10:01:03.804Z,100743.66
2019-04-25T10:03:33.301Z,100740.88
2019-04-25T10:06:00.575Z,100730.80
2019-04-25T10:08:27.575Z,100725.89
2019-04-25T10:10:55.470Z,100728.38
2019-04-25T10:13:23.507Z,100727.09
2019-04-25T10:16:36.036Z,100720.39
2019-04-25T10:19:03.430Z,100720.09
2019-04-25T10:21:31.658Z,100719.98
2019-04-25T10:23:58.433Z,100713.87
2019-04-25T10:29:13.783Z,100720.93
2019-04-25T10:31:40.752Z,100720.93
2019-04-25T10:34:07.538Z,100714.83
2019-04-25T10:36:34.828Z,100721.16
2019-04-25T10:39:08.652Z,100720.83
2019-04-25T10:41:30.944Z,100713.62
2019-04-25T10:43:58.035Z,100703.21
2019-04-25T10:46:24.901Z,100705.09
2019-04-25T10:48:54.053Z,100698.63
2019-04-25T10:51:20.453Z,100703.84
2019-04-25T10:53:47.491Z,100691.16
2019-04-25T10:56:14.515Z,100693.53
2019-04-25T10:58:41.592Z,100697.19
2019-04-25T11:01:08.409Z,100695.03
2019-04-25T11:06:26.598Z,100686.26
2019-04-25T11:08:55.422Z,100683.26
2019-04-25T11:11:24.000Z,100682.92
2019-04-25T11:14:34.050Z,100673.50
2019-04-25T11:17:01.771Z,100670.20
2019-04-25T11:19:28.951Z,100671.45
2019-04-25T11:21:56.353Z,100667.78
2019-04-25T11:24:23.825Z,100674.24
2019-04-25T11:26:55.147Z,100673.25
2019-04-25T11:29:21.187Z,100675.53
2019-04-25T11:31:48.956Z,100665.02
2019-04-25T11:37:05.871Z,100671.40
2019-04-25T11:42:27.390Z,100672.17
2019-04-25T11:44:54.531Z,100660.18
2019-04-25T11:47:24.271Z,100660.30
2019-04-25T11:49:54.194Z,100658.11
2019-04-25T11:52:28.211Z,100665.30
2019-04-25T11:54:50.277Z,100665.38
2019-04-25T11:57:16.982Z,100662.43
2019-04-25T11:59:45.195Z,100655.73
2019-04-25T12:02:13.380Z,100659.60
2019-04-25T12:04:42.557Z,100668.61
2019-04-25T12:07:10.236Z,100657.30
2019-04-25T12:09:36.954Z,100651.77
2019-04-25T12:12:05.672Z,100649.36
2019-04-25T12:14:34.045Z,100651.84
2019-04-25T12:17:00.925Z,100646.34
2019-04-25T12:19:35.725Z,100647.76
2019-04-25T12:21:58.212Z,100641.09
2019-04-25T12:24:25.792Z,100648.97
2019-04-25T12:26:54.838Z,100646.38
2019-04-25T12:29:21.661Z,100647.02
2019-04-25T12:31:49.258Z,100645.73
2019-04-25T12:34:17.784Z,100645.73
2019-04-25T12:36:44.898Z,100633.89
2019-04-25T12:39:14.079Z,100636.81
2019-04-25T12:42:04.329Z,100637.18
2019-04-25T12:44:51.524Z,100633.79
2019-04-25T12:49:56.138Z,100635.09
2019-04-25T12:52:24.699Z,100631.36
2019-04-25T12:54:54.039Z,100632.44
2019-04-25T12:59:57.601Z,100631.22
2019-04-25T13:02:25.710Z,100629.28
2019-04-25T13:04:54.506Z,100626.39
2019-04-25T13:07:21.384Z,100623.08
2019-04-25T13:09:51.240Z,100624.25
2019-04-25T13:12:17.070Z,100615.80
2019-04-25T13:14:43.791Z,100612.81
2019-04-25T13:17:10.815Z,100612.48
2019-04-25T13:19:37.592Z,100609.23
2019-04-25T13:22:04.957Z,100610.52
2019-04-25T13:24:33.470Z,100605.97
2019-04-25T13:30:14.028Z,100605.98
2019-04-25T13:33:00.649Z,100611.73
2019-04-25T13:38:06.738Z,100598.94
2019-04-25T13:40:33.969Z,100602.79
2019-04-25T13:43:01.065Z,100597.61
2019-04-25T13:45:28.523Z,100593.23
2019-04-25T13:47:55.777Z,100592.56
2019-04-25T13:50:24.012Z,100589.44
2019-04-25T13:52:53.270Z,100593.13
2019-04-25T13:55:21.313Z,100588.54
2019-04-25T13:57:49.625Z,100593.58
2019-04-25T14:03:05.424Z,100584.41
2019-04-25T14:05:34.000Z,100585.87
2019-04-25T14:08:01.300Z,100586.19
2019-04-25T14:10:28.705Z,100580.95
2019-04-25T14:12:55.707Z,100572.12
2019-04-25T14:18:05.804Z,100567.36
2019-04-25T14:20:56.446Z,100568.76
2019-04-25T14:23:24.475Z,100570.47
2019-04-25T14:25:52.601Z,100573.52
2019-04-25T14:28:19.504Z,100569.11
2019-04-25T14:30:46.569Z,100568.10
2019-04-25T14:33:13.730Z,100567.92
2019-04-25T14:35:40.534Z,100561.83
2019-04-25T14:38:07.359Z,100562.31
2019-04-25T14:40:35.231Z,100559.97
2019-04-25T14:43:02.420Z,100561.34
2019-04-25T14:45:41.701Z,100553.28
2019-04-25T14:47:58.669Z,100553.50
2019-04-25T14:50:25.835Z,100552.96
2019-04-25T14:52:52.921Z,100550.61
2019-04-25T14:55:40.200Z,100545.16
2019-04-25T15:01:00.738Z,100544.87
2019-04-25T15:03:27.586Z,100543.33
2019-04-25T15:05:54.336Z,100537.78
2019-04-25T15:08:21.374Z,100537.99
2019-04-25T15:10:48.522Z,100541.62
2019-04-25T15:13:17.353Z,100542.09
2019-04-25T15:15:44.451Z,100535.23
2019-04-25T15:18:12.043Z,100538.17
2019-04-25T15:20:39.217Z,100528.67
2019-04-25T15:23:06.319Z,100528.64
2019-04-25T15:25:33.538Z,100525.43
2019-04-25T15:28:00.963Z,100527.22
2019-04-25T15:33:36.876Z,100518.06
2019-04-25T15:36:23.657Z,100529.98
2019-04-25T15:45:17.557Z,100517.48
2019-04-25T15:48:34.563Z,100513.14
2019-04-25T15:51:40.615Z,100506.55
2019-04-25T15:54:08.196Z,100505.73
2019-04-25T15:56:35.377Z,100503.07
2019-04-25T15:59:02.750Z,100504.53
2019-04-25T16:01:30.347Z,100497.66
2019-04-25T16:03:57.687Z,100496.34
2019-04-25T16:06:25.540Z,100496.05
2019-04-25T16:08:53.902Z,100501.76
2019-04-25T16:12:01.793Z,100500.38
2019-04-25T16:14:28.896Z,100500.55
2019-04-25T16:16:55.982Z,100499.91
2019-04-25T16:19:23.353Z,100495.78
2019-04-25T16:21:50.798Z,100497.84
2019-04-25T16:24:17.954Z,100497.13
2019-04-25T16:26:45.068Z,100495.39
2019-04-25T16:29:12.236Z,100490.31
2019-04-25T16:31:39.539Z,100495.00
2019-04-25T16:34:07.003Z,100486.95
2019-04-25T16:36:34.495Z,100490.14
2019-04-25T16:39:01.616Z,100490.38
2019-04-25T16:41:28.733Z,100485.97
2019-04-25T16:46:38.216Z,100480.81
2019-04-25T16:51:47.303Z,100487.31
2019-04-25T16:54:14.404Z,100494.31
2019-04-25T16:56:41.755Z,100492.23
2019-04-25T16:59:09.307Z,100492.24
2019-04-25T17:01:36.426Z,100495.84
2019-04-25T17:04:04.272Z,100487.87
2019-04-25T17:06:31.962Z,100485.64
2019-04-25T17:08:59.057Z,100483.56
2019-04-25T17:11:26.527Z,100482.01
2019-04-25T17:14:13.363Z,100488.33
2019-04-25T17:19:56.172Z,100490.59
2019-04-25T17:28:07.285Z,100479.67
2019-04-25T17:34:02.574Z,100485.92
2019-04-25T17:40:05.521Z,100480.42
2019-04-25T17:42:20.436Z,100488.37
2019-04-25T17:44:47.532Z,100485.91
2019-04-25T17:47:14.853Z,100485.20
2019-04-25T17:49:42.375Z,100486.16
2019-04-25T17:55:55.116Z,100486.73
2019-04-25T17:58:22.218Z,100486.13
2019-04-25T18:00:56.002Z,100482.33
2019-04-25T18:03:23.094Z,100484.31
2019-04-25T18:08:39.578Z,100479.08
2019-04-25T18:13:55.694Z,100485.29
2019-04-25T18:27:51.558Z,100478.78
2019-04-25T18:30:18.681Z,100486.67
2019-04-25T18:35:30.418Z,100484.48
2019-04-25T18:38:16.886Z,100482.86
2019-04-25T18:41:04.226Z,100482.29
2019-04-25T18:43:36.928Z,100484.59
2019-04-25T18:48:43.283Z,100487.33
2019-04-25T18:51:10.058Z,100481.73
2019-04-25T18:53:56.431Z,100485.52
2019-04-25T18:57:07.779Z,100483.12
2019-04-25T18:59:54.541Z,100479.25
2019-04-25T19:02:42.113Z,100486.30
2019-04-25T19:08:01.248Z,100482.47
2019-04-25T19:10:28.012Z,100479.72
2019-04-25T19:12:55.221Z,100483.80
2019-04-25T19:15:22.044Z,100478.86
2019-04-25T19:17:48.875Z,100478.09
2019-04-25T19:20:35.701Z,100483.12
2019-04-25T19:23:02.795Z,100480.50
2019-04-25T19:25:30.020Z,100481.61
2019-04-25T19:27:57.483Z,100482.91
2019-04-25T19:30:25.879Z,100485.66
2019-04-25T19:32:53.363Z,100484.27
2019-04-25T19:35:21.103Z,100485.61
2019-04-25T19:37:48.542Z,100488.70
2019-04-25T19:40:36.696Z,100483.81
2019-04-25T19:43:23.594Z,100485.11
2019-04-25T19:45:51.217Z,100483.21
2019-04-25T19:48:19.746Z,100484.14
2019-04-25T19:50:59.485Z,100490.36
2019-04-25T19:53:26.222Z,100489.50
2019-04-25T19:55:53.215Z,100490.03
2019-04-25T19:58:19.981Z,100491.53
2019-04-25T20:07:31.573Z,100488.48
2019-04-25T20:13:29.612Z,100484.76
2019-04-25T20:15:56.475Z,100488.23
2019-04-25T20:18:23.206Z,100483.35
2019-04-25T20:20:50.109Z,100483.72
2019-04-25T20:23:16.837Z,100480.55
2019-04-25T20:25:43.961Z,100478.83
2019-04-25T20:28:13.256Z,100482.98
2019-04-25T20:30:40.516Z,100476.81
2019-04-25T20:33:07.717Z,100476.31
2019-04-25T20:35:34.855Z,100476.95
2019-04-25T20:38:02.369Z,100474.69
2019-04-25T20:40:30.428Z,100472.93
2019-04-25T20:42:58.071Z,100474.30
2019-04-25T20:45:25.335Z,100464.64
2019-04-25T20:47:52.737Z,100462.88
2019-04-25T20:50:20.019Z,100466.44
2019-04-25T20:52:59.958Z,100464.72
2019-04-25T20:55:27.058Z,100462.01
2019-04-25T20:57:55.460Z,100458.84
2019-04-25T21:03:33.236Z,100459.38
2019-04-25T21:06:19.959Z,100453.16
2019-04-25T21:08:47.627Z,100448.00
2019-04-25T21:11:14.692Z,100449.48
2019-04-25T21:14:01.539Z,100449.42
2019-04-25T21:16:47.962Z,100450.16
2019-04-25T21:19:17.266Z,100452.62
2019-04-25T21:21:43.984Z,100445.53
2019-04-25T21:24:11.003Z,100444.20
2019-04-25T21:26:37.902Z,100447.63
2019-04-25T21:29:26.151Z,100443.52
2019-04-25T21:31:53.010Z,100441.01
2019-04-25T21:34:25.983Z,100437.75
2019-04-25T21:36:49.395Z,100434.78
2019-04-25T21:39:36.363Z,100440.55
2019-04-25T21:42:22.831Z,100440.64
2019-04-25T21:44:49.812Z,100437.44
2019-04-25T21:47:16.673Z,100429.86
2019-04-25T21:49:43.614Z,100422.91
2019-04-25T21:52:10.397Z,100428.75
2019-04-25T21:54:37.694Z,100428.15
2019-04-25T21:57:04.671Z,100422.19
2019-04-25T21:59:31.767Z,100424.56
2019-04-25T22:01:58.749Z,100418.78
2019-04-25T22:04:37.990Z,100419.41
2019-04-25T22:06:56.010Z,100418.61
2019-04-25T22:14:48.013Z,100415.95
2019-04-25T22:17:16.841Z,100415.48
2019-04-25T22:19:44.763Z,100418.91
2019-04-25T22:22:12.608Z,100416.72
2019-04-25T22:24:40.991Z,100424.81
2019-04-25T22:29:59.947Z,100416.86
2019-04-25T22:32:47.814Z,100406.62
2019-04-25T22:35:20.205Z,100409.20
2019-04-25T22:37:46.947Z,100408.27
2019-04-25T22:40:13.689Z,100408.66
2019-04-25T22:42:40.602Z,100411.79
2019-04-25T22:45:08.005Z,100410.80
2019-04-25T22:47:36.765Z,100407.41
2019-04-25T22:50:04.476Z,100407.20
2019-04-25T22:52:33.115Z,100404.54
2019-04-25T22:55:00.915Z,100398.07
2019-04-25T22:57:29.021Z,100405.40
2019-04-25T22:59:56.089Z,100405.52
2019-04-25T23:02:42.976Z,100401.37
2019-04-25T23:05:17.413Z,100410.34
2019-04-25T23:07:45.504Z,100409.73
2019-04-25T23:10:13.046Z,100399.52
2019-04-25T23:12:40.294Z,100398.33
2019-04-25T23:15:07.485Z,100393.28
2019-04-25T23:17:34.698Z,100382.34
2019-04-25T23:20:04.201Z,100386.70
2019-04-25T23:22:30.913Z,100387.39
2019-04-25T23:27:56.251Z,100390.82
2019-04-25T23:33:14.696Z,100381.55
2019-04-25T23:38:31.448Z,100375.91
2019-04-25T23:40:58.473Z,100374.22
2019-04-25T23:43:25.215Z,100377.95
2019-04-25T23:45:52.018Z,100377.70
2019-04-25T23:48:19.155Z,100374.77
2019-04-25T23:50:45.905Z,100381.63
2019-04-25T23:53:12.894Z,100376.33
2019-04-25T23:55:39.680Z,100370.62
2019-04-25T23:58:07.074Z,100362.94
